Guthrie, Texas
Current Conditions -  °F | °C
As of 6:53 PM on Thursday 18 Dec 2014 (Local Time) from KCDS Reporting Station
Overcast Overcast  
Wind Chill: 41°   Ceiling: 1800
Heat Index: 45°   Visibility: 10mi
Dew Point: 38°   Wind: 7mph
Humidity: 76%   Direction: 50°NE
Pressure: 30.15"   Gusts: NA
Location:  33.62°N, 100.32°W
Report Text: KCDS 190053Z AUTO 05006KT 10SM OVC018 07/03 A3015 RMK AO2 SLP210 T00720033
Loading
Personal Weather Stations






























Interactive Weather Map New forecast layout! Learn more

10-Day Weather Forecast

Advertisements
Track Severe Weather on mobile